Time;durP1;ratioP1;P1;durP2;ratioP2;P2;SDS_P1;SDS_P2;PMS_P1;PMS_P2;Temp;Humidity;BMP_temperature;BMP_pressure;BME280_temperature;BME280_humidity;BME280_pressure;Samples;Min_cycle;Max_cycle;Signal;HPM_P1;HPM_P2
2023/12/02 00:00:57;;;;;;;7.17;5.80;;;2.80;91.70;;;;;;968664;145;27247;-75
2023/12/02 00:03:24;;;;;;;5.60;5.10;;;2.80;91.80;;;;;;967673;143;27354;-74
2023/12/02 00:05:50;;;;;;;6.53;5.03;;;2.80;91.80;;;;;;967408;145;27286;-79
2023/12/02 00:08:17;;;;;;;6.63;5.57;;;2.80;91.80;;;;;;967638;145;27323;-74
2023/12/02 00:10:43;;;;;;;6.23;4.90;;;2.80;91.80;;;;;;966138;146;27222;-75
2023/12/02 00:13:10;;;;;;;5.47;4.97;;;2.80;91.80;;;;;;965637;145;27338;-74
2023/12/02 00:15:36;;;;;;;7.43;5.80;;;2.80;91.50;;;;;;967169;146;27411;-77
2023/12/02 00:18:03;;;;;;;5.23;4.73;;;2.80;91.80;;;;;;967969;145;27329;-77
2023/12/02 00:20:30;;;;;;;5.63;5.03;;;2.70;91.80;;;;;;965876;145;28045;-77
2023/12/02 00:22:56;;;;;;;5.87;5.27;;;2.80;91.80;;;;;;967465;145;27395;-78
2023/12/02 00:25:23;;;;;;;5.90;5.20;;;2.70;91.70;;;;;;966375;146;27381;-78
2023/12/02 00:27:49;;;;;;;5.57;5.00;;;2.70;91.60;;;;;;967672;145;27301;-78
2023/12/02 00:30:16;;;;;;;5.80;5.13;;;2.70;91.60;;;;;;967513;146;27755;-78
2023/12/02 00:32:43;;;;;;;5.57;5.00;;;2.70;91.50;;;;;;966685;146;27314;-78
2023/12/02 00:35:09;;;;;;;5.07;4.67;;;2.70;91.50;;;;;;967753;145;27246;-78
2023/12/02 00:37:36;;;;;;;6.20;5.60;;;2.70;91.60;;;;;;967887;145;27235;-78
2023/12/02 00:40:02;;;;;;;4.93;4.43;;;2.70;91.70;;;;;;966977;145;27443;-78
2023/12/02 00:42:29;;;;;;;6.73;5.50;;;2.70;91.70;;;;;;966360;145;27309;-78
2023/12/02 00:44:55;;;;;;;5.17;4.67;;;2.70;91.70;;;;;;967037;146;27250;-78
2023/12/02 00:47:22;;;;;;;5.17;4.67;;;2.70;91.60;;;;;;964897;145;27235;-78
2023/12/02 00:49:49;;;;;;;5.20;4.70;;;2.70;91.50;;;;;;968862;146;27396;-78
2023/12/02 00:52:15;;;;;;;5.43;4.73;;;2.70;91.50;;;;;;968145;146;27379;-78
2023/12/02 00:54:42;;;;;;;5.60;5.03;;;2.60;91.40;;;;;;966742;146;27839;-77
2023/12/02 00:57:08;;;;;;;5.27;4.30;;;2.60;91.40;;;;;;968278;146;27415;-77
2023/12/02 00:59:35;;;;;;;5.10;4.50;;;2.60;91.30;;;;;;968391;146;27383;-77
2023/12/02 01:02:02;;;;;;;4.47;4.03;;;2.60;91.20;;;;;;967336;146;27312;-77
2023/12/02 01:04:28;;;;;;;5.77;5.00;;;2.60;91.20;;;;;;969409;146;27280;-77
2023/12/02 01:06:55;;;;;;;5.50;5.00;;;2.60;91.20;;;;;;968840;146;27357;-77
2023/12/02 01:09:21;;;;;;;4.77;4.10;;;2.60;91.30;;;;;;969504;146;27262;-77
2023/12/02 01:11:48;;;;;;;5.13;4.70;;;2.60;91.30;;;;;;969542;146;27740;-77
2023/12/02 01:14:14;;;;;;;5.13;4.63;;;2.60;91.30;;;;;;970852;146;27303;-78
2023/12/02 01:16:41;;;;;;;5.60;5.10;;;2.50;91.30;;;;;;967363;146;28515;-77
2023/12/02 01:19:08;;;;;;;6.07;4.43;;;2.50;91.20;;;;;;966923;146;27266;-77
2023/12/02 01:21:34;;;;;;;4.80;4.30;;;2.50;91.30;;;;;;968596;146;27275;-78
2023/12/02 01:24:01;;;;;;;5.13;4.43;;;2.50;91.40;;;;;;966537;146;27417;-77
2023/12/02 01:26:27;;;;;;;5.77;4.60;;;2.50;91.10;;;;;;968009;146;27706;-77
2023/12/02 01:28:54;;;;;;;5.00;4.20;;;2.60;91.30;;;;;;967097;146;27307;-78
2023/12/02 01:31:21;;;;;;;4.67;4.27;;;2.50;91.20;;;;;;969353;146;27300;-78
2023/12/02 01:33:47;;;;;;;5.43;4.53;;;2.50;91.20;;;;;;969919;146;27309;-78
2023/12/02 01:36:14;;;;;;;4.90;4.40;;;2.50;91.10;;;;;;968558;146;27411;-78
2023/12/02 01:38:40;;;;;;;4.87;4.37;;;2.50;91.20;;;;;;969445;146;27389;-78
2023/12/02 01:41:07;;;;;;;4.80;4.07;;;2.50;91.10;;;;;;970111;144;27345;-78
2023/12/02 01:43:33;;;;;;;4.43;4.03;;;2.50;91.20;;;;;;970197;146;27289;-78
2023/12/02 01:46:00;;;;;;;4.80;4.30;;;2.50;91.20;;;;;;968486;146;27302;-78
2023/12/02 01:48:27;;;;;;;4.80;4.40;;;2.50;91.20;;;;;;967911;146;27812;-78
2023/12/02 01:50:53;;;;;;;5.17;4.67;;;2.50;91.20;;;;;;968010;146;27325;-78
2023/12/02 01:53:20;;;;;;;5.17;4.53;;;2.50;91.20;;;;;;965140;146;27261;-78
2023/12/02 01:55:46;;;;;;;4.80;4.30;;;2.50;91.30;;;;;;965982;146;27298;-78
2023/12/02 01:58:13;;;;;;;5.37;4.53;;;2.50;91.20;;;;;;966611;146;27308;-78
2023/12/02 02:00:40;;;;;;;5.30;4.57;;;2.50;91.30;;;;;;966956;146;27353;-78
2023/12/02 02:03:06;;;;;;;4.87;4.33;;;2.50;91.30;;;;;;964889;146;27354;-78
2023/12/02 02:05:33;;;;;;;5.53;4.90;;;2.50;91.20;;;;;;967897;146;27225;-78
2023/12/02 02:07:59;;;;;;;5.67;4.77;;;2.50;91.30;;;;;;967483;146;27430;-78
2023/12/02 02:10:26;;;;;;;4.50;4.10;;;2.50;91.20;;;;;;966850;146;27283;-77
2023/12/02 02:12:52;;;;;;;4.30;3.90;;;2.50;91.20;;;;;;967664;146;27286;-77
2023/12/02 02:15:19;;;;;;;4.67;4.10;;;2.50;91.20;;;;;;967947;146;27375;-77
2023/12/02 02:17:46;;;;;;;4.70;4.23;;;2.50;91.20;;;;;;967100;146;27411;-77
2023/12/02 02:20:12;;;;;;;4.90;4.20;;;2.50;91.30;;;;;;966874;146;27335;-77
2023/12/02 02:22:39;;;;;;;5.10;4.33;;;2.50;91.20;;;;;;965448;146;27761;-77
2023/12/02 02:25:05;;;;;;;4.57;4.17;;;2.50;91.10;;;;;;965547;146;27323;-77
2023/12/02 02:27:32;;;;;;;5.00;4.30;;;2.50;91.10;;;;;;967688;146;27269;-77
2023/12/02 02:29:59;;;;;;;5.33;4.27;;;2.50;91.10;;;;;;967824;146;27341;-77
2023/12/02 02:32:25;;;;;;;5.57;4.00;;;2.50;91.20;;;;;;965953;146;27392;-77
2023/12/02 02:34:52;;;;;;;4.03;3.63;;;2.50;91.10;;;;;;965542;146;27312;-79
2023/12/02 02:37:18;;;;;;;5.37;4.50;;;2.50;91.10;;;;;;966192;144;27406;-78
2023/12/02 02:39:45;;;;;;;4.37;3.97;;;2.50;91.10;;;;;;965178;146;27437;-78
2023/12/02 02:42:11;;;;;;;5.20;4.63;;;2.50;91.10;;;;;;967828;146;27318;-78
2023/12/02 02:44:38;;;;;;;5.17;4.63;;;2.50;91.20;;;;;;967772;146;27294;-78
2023/12/02 02:47:05;;;;;;;5.23;4.73;;;2.50;91.10;;;;;;967378;145;27238;-78
2023/12/02 02:49:31;;;;;;;5.03;4.53;;;2.50;91.10;;;;;;968337;146;27319;-78
2023/12/02 02:51:58;;;;;;;5.60;5.00;;;2.50;91.00;;;;;;964950;146;27372;-78
2023/12/02 02:54:24;;;;;;;5.00;4.50;;;2.50;91.00;;;;;;966605;146;27375;-78
2023/12/02 02:56:51;;;;;;;5.53;5.03;;;2.50;91.10;;;;;;967539;146;27444;-78
2023/12/02 02:59:18;;;;;;;5.63;5.00;;;2.50;91.10;;;;;;966502;146;27302;-78
2023/12/02 03:01:44;;;;;;;5.30;4.57;;;2.50;91.20;;;;;;966475;146;27330;-78
2023/12/02 03:04:11;;;;;;;8.33;4.63;;;2.50;91.10;;;;;;969301;146;27285;-78
2023/12/02 03:06:37;;;;;;;4.90;4.47;;;2.50;91.00;;;;;;967309;146;27370;-78
2023/12/02 03:09:05;;;;;;;5.63;5.03;;;2.50;90.90;;;;;;966534;146;27285;-78
2023/12/02 03:11:31;;;;;;;5.40;4.90;;;2.50;90.90;;;;;;967684;144;27327;-78
2023/12/02 03:13:57;;;;;;;6.37;4.83;;;2.50;90.90;;;;;;965591;146;27291;-78
2023/12/02 03:16:24;;;;;;;5.77;5.03;;;2.50;90.80;;;;;;967313;146;27358;-77
2023/12/02 03:18:50;;;;;;;5.30;4.80;;;2.50;90.90;;;;;;967874;146;27301;-78
2023/12/02 03:21:17;;;;;;;5.63;4.70;;;2.40;90.80;;;;;;966812;146;27255;-78
2023/12/02 03:23:43;;;;;;;8.20;4.90;;;2.40;90.70;;;;;;966605;146;27336;-78
2023/12/02 03:26:11;;;;;;;5.33;4.67;;;2.40;90.70;;;;;;965123;146;27392;-78
2023/12/02 03:28:37;;;;;;;4.90;4.40;;;2.40;90.80;;;;;;965753;146;27274;-78
2023/12/02 03:31:04;;;;;;;5.70;4.73;;;2.40;90.90;;;;;;968716;142;27257;-78
2023/12/02 03:33:30;;;;;;;5.20;4.70;;;2.40;90.90;;;;;;968552;144;27393;-78
2023/12/02 03:35:56;;;;;;;5.60;4.70;;;2.40;90.80;;;;;;967433;146;27316;-78
2023/12/02 03:38:23;;;;;;;6.60;4.90;;;2.40;90.80;;;;;;966567;146;27259;-78
2023/12/02 03:40:49;;;;;;;6.40;4.90;;;2.40;90.70;;;;;;968305;146;27302;-78
2023/12/02 03:43:16;;;;;;;5.37;4.87;;;2.40;90.80;;;;;;968025;146;27294;-78
2023/12/02 03:45:43;;;;;;;5.50;4.77;;;2.40;90.80;;;;;;967651;146;27419;-77
2023/12/02 03:48:09;;;;;;;5.63;4.70;;;2.40;90.70;;;;;;966357;146;27876;-78
2023/12/02 03:50:36;;;;;;;4.73;4.23;;;2.30;90.70;;;;;;968086;146;27286;-78
2023/12/02 03:53:02;;;;;;;6.17;5.07;;;2.30;90.70;;;;;;967777;146;27381;-78
2023/12/02 03:55:29;;;;;;;5.63;4.73;;;2.30;90.70;;;;;;967221;146;27405;-78
2023/12/02 03:57:56;;;;;;;5.50;4.57;;;2.30;90.70;;;;;;966020;146;27341;-78
2023/12/02 04:00:23;;;;;;;5.67;5.10;;;2.30;90.50;;;;;;965839;146;27277;-78
2023/12/02 04:02:49;;;;;;;7.07;5.50;;;2.30;90.70;;;;;;967478;141;27411;-78
2023/12/02 04:05:15;;;;;;;7.30;5.03;;;2.30;90.60;;;;;;967476;146;27277;-78
2023/12/02 04:07:42;;;;;;;6.90;5.33;;;2.20;90.60;;;;;;966440;146;27333;-78
2023/12/02 04:10:09;;;;;;;7.67;4.70;;;2.20;90.70;;;;;;967798;146;28054;-78
2023/12/02 04:12:35;;;;;;;6.80;4.87;;;2.20;90.80;;;;;;966853;144;27285;-78
2023/12/02 04:15:02;;;;;;;5.47;4.87;;;2.20;90.70;;;;;;966150;146;27315;-78
2023/12/02 04:17:28;;;;;;;5.70;4.63;;;2.20;90.80;;;;;;967788;146;27329;-78
2023/12/02 04:19:55;;;;;;;4.83;4.33;;;2.20;90.80;;;;;;966537;146;27890;-78
2023/12/02 04:22:21;;;;;;;5.97;4.73;;;2.20;90.90;;;;;;966570;146;27241;-78
2023/12/02 04:24:48;;;;;;;5.93;5.00;;;2.20;90.80;;;;;;965665;146;27798;-78
2023/12/02 04:27:15;;;;;;;5.97;4.43;;;2.20;90.80;;;;;;967194;146;27351;-85
2023/12/02 04:29:42;;;;;;;6.00;4.77;;;2.20;90.80;;;;;;968190;146;27328;-86
2023/12/02 04:32:10;;;;;;;5.77;5.13;;;2.20;90.90;;;;;;967925;146;27438;-85
2023/12/02 04:34:37;;;;;;;6.30;4.97;;;2.20;90.80;;;;;;968075;146;27305;-85
2023/12/02 04:37:04;;;;;;;5.47;4.50;;;2.20;90.80;;;;;;964952;146;27304;-82
2023/12/02 04:39:30;;;;;;;5.33;4.57;;;2.20;90.80;;;;;;967922;146;27328;-84
2023/12/02 04:41:57;;;;;;;5.27;4.70;;;2.20;90.70;;;;;;970689;146;27430;-84
2023/12/02 04:44:23;;;;;;;5.73;4.60;;;2.20;90.80;;;;;;965001;146;27267;-81
2023/12/02 04:46:50;;;;;;;6.27;5.23;;;2.20;90.90;;;;;;967081;146;27622;-85
2023/12/02 04:49:17;;;;;;;6.20;5.30;;;2.20;90.90;;;;;;969024;144;27312;-80
2023/12/02 04:51:43;;;;;;;6.77;5.73;;;2.20;91.10;;;;;;967040;146;27352;-85
2023/12/02 04:54:10;;;;;;;6.70;5.37;;;2.20;91.10;;;;;;966408;146;27391;-85
2023/12/02 04:56:36;;;;;;;5.73;4.60;;;2.20;91.20;;;;;;966805;146;27279;-85
2023/12/02 04:59:03;;;;;;;5.67;5.07;;;2.20;91.30;;;;;;966243;146;27693;-82
2023/12/02 05:01:29;;;;;;;6.10;5.50;;;2.20;91.30;;;;;;965722;146;28345;-84
2023/12/02 05:03:56;;;;;;;6.57;5.00;;;2.20;91.30;;;;;;966946;146;27290;-85
2023/12/02 05:06:23;;;;;;;4.93;4.43;;;2.20;91.30;;;;;;966747;146;27363;-81
2023/12/02 05:08:49;;;;;;;6.00;5.40;;;2.20;91.20;;;;;;966292;146;27289;-82
2023/12/02 05:11:22;;;;;;;5.17;4.67;;;2.20;91.20;;;;;;968388;146;27712;-86
2023/12/02 05:13:48;;;;;;;4.83;4.33;;;2.20;91.20;;;;;;968513;146;27938;-86
2023/12/02 05:16:15;;;;;;;5.60;4.87;;;2.20;91.10;;;;;;969414;146;27376;-85
2023/12/02 05:18:41;;;;;;;4.87;4.37;;;2.20;91.10;;;;;;969200;146;27245;-84
2023/12/02 05:21:09;;;;;;;5.20;4.20;;;2.30;91.00;;;;;;966950;146;27337;-78
2023/12/02 05:23:35;;;;;;;4.53;4.13;;;2.20;91.00;;;;;;964047;146;27316;-83
2023/12/02 05:26:01;;;;;;;5.90;4.27;;;2.30;91.00;;;;;;967843;146;27853;-84
2023/12/02 05:28:28;;;;;;;4.93;4.47;;;2.30;91.00;;;;;;965935;146;27313;-85
2023/12/02 05:30:55;;;;;;;5.13;4.30;;;2.20;90.80;;;;;;966251;146;27274;-82
2023/12/02 05:33:22;;;;;;;4.93;4.40;;;2.20;90.70;;;;;;969991;146;27433;-86
2023/12/02 05:35:48;;;;;;;5.77;4.23;;;2.20;90.70;;;;;;967281;144;27334;-86
2023/12/02 05:38:14;;;;;;;5.23;4.20;;;2.20;90.60;;;;;;966940;146;27217;-85
2023/12/02 05:40:41;;;;;;;4.10;3.50;;;2.20;90.70;;;;;;967820;146;27348;-82
2023/12/02 05:43:07;;;;;;;5.00;4.00;;;2.20;90.40;;;;;;966772;146;27298;-78
2023/12/02 05:45:34;;;;;;;4.30;3.90;;;2.20;90.30;;;;;;967673;146;27332;-84
2023/12/02 05:48:00;;;;;;;5.40;3.90;;;2.20;90.30;;;;;;963750;146;27251;-84
2023/12/02 05:50:27;;;;;;;3.90;3.50;;;2.10;90.20;;;;;;964719;146;27774;-84
2023/12/02 05:52:54;;;;;;;4.30;3.90;;;2.10;90.20;;;;;;968398;146;27353;-80
2023/12/02 05:55:20;;;;;;;4.63;4.20;;;2.10;90.30;;;;;;966013;146;27285;-84
2023/12/02 05:57:47;;;;;;;3.93;3.60;;;2.10;90.30;;;;;;967386;146;27275;-85
2023/12/02 06:00:16;;;;;;;3.83;3.43;;;2.10;90.40;;;;;;969969;146;27357;-85
2023/12/02 06:02:40;;;;;;;4.57;3.80;;;2.10;90.40;;;;;;967626;146;27257;-84
2023/12/02 06:05:07;;;;;;;4.30;3.60;;;2.10;90.50;;;;;;967252;146;27377;-81
2023/12/02 06:07:33;;;;;;;3.73;3.33;;;2.10;90.40;;;;;;967895;146;27320;-75
2023/12/02 06:10:00;;;;;;;3.90;3.50;;;2.10;90.40;;;;;;966669;146;27286;-74
2023/12/02 06:12:26;;;;;;;4.10;3.70;;;2.10;90.40;;;;;;968324;146;27250;-75
2023/12/02 06:14:53;;;;;;;4.17;3.73;;;2.10;90.20;;;;;;965769;146;27438;-77
2023/12/02 06:17:19;;;;;;;4.03;3.53;;;2.10;90.20;;;;;;953662;146;27313;-75
2023/12/02 06:19:46;;;;;;;3.40;3.13;;;2.10;90.10;;;;;;966203;146;27314;-75
2023/12/02 06:22:13;;;;;;;3.93;3.50;;;2.10;89.80;;;;;;967376;146;27262;-75
2023/12/02 06:24:39;;;;;;;3.60;3.30;;;2.00;89.40;;;;;;967794;143;27313;-76
2023/12/02 06:27:06;;;;;;;3.83;3.10;;;2.00;89.20;;;;;;968450;146;27328;-78
2023/12/02 06:29:32;;;;;;;3.30;2.90;;;2.00;89.10;;;;;;967726;146;27322;-74
2023/12/02 06:31:59;;;;;;;4.10;3.70;;;1.90;89.10;;;;;;966502;146;27222;-74
2023/12/02 06:34:26;;;;;;;3.40;3.10;;;1.90;89.40;;;;;;966150;146;27843;-74
2023/12/02 06:36:52;;;;;;;4.07;3.67;;;1.80;89.50;;;;;;965470;146;27270;-77
2023/12/02 06:39:19;;;;;;;3.70;3.40;;;1.80;89.90;;;;;;966431;146;27304;-74
2023/12/02 06:41:45;;;;;;;3.90;3.50;;;1.80;90.00;;;;;;967398;146;27436;-74
2023/12/02 06:44:12;;;;;;;3.90;3.50;;;1.80;90.10;;;;;;967749;146;27399;-74
2023/12/02 06:46:38;;;;;;;3.93;3.40;;;1.80;90.20;;;;;;968309;146;27345;-83
2023/12/02 06:49:05;;;;;;;3.87;3.47;;;1.80;90.20;;;;;;965572;146;27338;-85
2023/12/02 06:51:32;;;;;;;3.87;3.43;;;1.90;90.40;;;;;;966151;146;27308;-86
2023/12/02 06:53:58;;;;;;;3.53;3.23;;;1.90;90.40;;;;;;964880;145;27415;-85
2023/12/02 06:56:25;;;;;;;4.73;3.10;;;1.90;90.40;;;;;;969416;146;27253;-85
2023/12/02 06:58:51;;;;;;;4.23;3.03;;;1.90;90.40;;;;;;969169;145;27265;-82
2023/12/02 07:01:24;;;;;;;3.33;3.03;;;2.00;90.40;;;;;;967262;145;27331;-85
2023/12/02 07:03:50;;;;;;;3.83;3.47;;;2.00;90.40;;;;;;967472;144;27313;-86
2023/12/02 07:06:17;;;;;;;3.90;3.50;;;2.00;90.20;;;;;;968176;146;27341;-84
2023/12/02 07:08:44;;;;;;;3.37;3.00;;;2.00;90.10;;;;;;965575;145;27595;-83
2023/12/02 07:11:10;;;;;;;3.33;3.03;;;2.00;90.00;;;;;;964877;146;27468;-82
2023/12/02 07:13:37;;;;;;;2.97;2.73;;;2.00;89.90;;;;;;967349;145;27423;-85
2023/12/02 07:16:03;;;;;;;3.50;3.20;;;2.00;90.00;;;;;;968536;146;27229;-84
2023/12/02 07:18:30;;;;;;;3.03;2.83;;;2.00;89.70;;;;;;969564;145;27891;-83
2023/12/02 07:20:56;;;;;;;3.23;2.93;;;2.00;89.60;;;;;;967339;145;27816;-78
2023/12/02 07:23:25;;;;;;;3.27;2.90;;;2.00;89.90;;;;;;968940;145;27301;-85
2023/12/02 07:25:50;;;;;;;2.90;2.67;;;2.00;89.50;;;;;;966132;145;27327;-86
2023/12/02 07:28:16;;;;;;;3.23;2.90;;;2.00;89.40;;;;;;968425;146;27362;-85
2023/12/02 07:30:43;;;;;;;3.33;3.03;;;2.00;89.30;;;;;;966054;145;27436;-83
2023/12/02 07:33:09;;;;;;;3.17;2.93;;;2.00;89.20;;;;;;966842;146;27434;-85
2023/12/02 07:35:36;;;;;;;3.43;2.93;;;2.10;88.90;;;;;;968048;145;27321;-86
2023/12/02 07:38:03;;;;;;;3.20;2.90;;;2.10;88.80;;;;;;967799;145;27398;-84
2023/12/02 07:40:29;;;;;;;2.70;2.50;;;2.10;88.90;;;;;;965474;145;27275;-82
2023/12/02 07:42:56;;;;;;;3.10;2.80;;;2.10;88.90;;;;;;967591;145;27349;-86
2023/12/02 07:45:22;;;;;;;2.93;2.70;;;2.10;88.80;;;;;;968133;145;27499;-86
2023/12/02 07:47:49;;;;;;;3.00;2.70;;;2.10;88.70;;;;;;968018;145;27882;-84
2023/12/02 07:50:16;;;;;;;2.63;2.43;;;2.10;89.50;;;;;;967491;146;27261;-85
2023/12/02 07:52:43;;;;;;;2.77;2.57;;;2.10;88.60;;;;;;966469;145;27246;-79
2023/12/02 07:55:09;;;;;;;2.97;2.67;;;2.10;88.30;;;;;;960331;145;27851;-85
2023/12/02 07:57:36;;;;;;;2.93;2.70;;;2.10;88.30;;;;;;961863;147;27337;-78
2023/12/02 08:00:02;;;;;;;3.40;3.10;;;2.10;88.20;;;;;;958961;147;27264;-78
2023/12/02 08:02:28;;;;;;;3.17;2.97;;;2.20;88.20;;;;;;961069;147;27270;-78
2023/12/02 08:04:55;;;;;;;4.73;3.27;;;2.20;88.30;;;;;;963448;147;27496;-78
2023/12/02 08:07:22;;;;;;;2.60;2.40;;;2.20;88.20;;;;;;961492;147;27423;-78
2023/12/02 08:09:48;;;;;;;2.93;2.67;;;2.20;87.90;;;;;;958582;147;27235;-78
2023/12/02 08:12:15;;;;;;;3.03;2.77;;;2.20;87.80;;;;;;958902;147;27363;-78
2023/12/02 08:14:41;;;;;;;3.47;3.00;;;2.20;87.80;;;;;;960618;147;27330;-78
2023/12/02 08:17:08;;;;;;;2.80;2.50;;;2.20;87.60;;;;;;957737;146;27305;-78
2023/12/02 08:19:35;;;;;;;3.33;3.03;;;2.20;87.50;;;;;;950975;147;27313;-78
2023/12/02 08:22:01;;;;;;;2.70;2.50;;;2.20;87.30;;;;;;958458;147;27377;-78
2023/12/02 08:24:28;;;;;;;4.07;3.33;;;2.20;87.40;;;;;;961337;146;27359;-78
2023/12/02 08:26:54;;;;;;;3.20;2.90;;;2.30;87.60;;;;;;962734;147;27393;-77
2023/12/02 08:29:21;;;;;;;3.93;3.00;;;2.30;87.50;;;;;;958532;147;28357;-78
2023/12/02 08:31:47;;;;;;;3.53;2.80;;;2.30;87.50;;;;;;959371;147;27434;-78
2023/12/02 08:34:14;;;;;;;3.13;2.83;;;2.30;87.70;;;;;;960452;147;27344;-78
2023/12/02 08:36:41;;;;;;;2.97;2.77;;;2.40;87.70;;;;;;957157;147;27323;-78
2023/12/02 08:39:07;;;;;;;3.00;2.80;;;2.40;87.60;;;;;;960644;147;27413;-78
2023/12/02 08:41:35;;;;;;;3.13;2.87;;;2.40;87.40;;;;;;961979;146;27334;-78
2023/12/02 08:44:00;;;;;;;3.47;3.17;;;2.40;87.40;;;;;;958629;146;27348;-78
2023/12/02 08:46:27;;;;;;;3.43;3.13;;;2.40;87.10;;;;;;960069;147;27290;-78
2023/12/02 08:48:53;;;;;;;2.83;2.63;;;2.40;87.00;;;;;;957098;147;27430;-78
2023/12/02 08:51:21;;;;;;;2.70;2.50;;;2.50;87.10;;;;;;956407;148;27338;-78
2023/12/02 08:53:47;;;;;;;2.87;2.67;;;2.50;87.00;;;;;;958647;146;27330;-78
2023/12/02 08:56:13;;;;;;;2.90;2.67;;;2.50;87.50;;;;;;964547;145;27406;-78
2023/12/02 08:58:40;;;;;;;3.13;2.83;;;2.50;86.70;;;;;;965360;145;27399;-78
2023/12/02 09:01:06;;;;;;;5.67;3.83;;;2.50;86.80;;;;;;965655;146;27334;-78
2023/12/02 09:03:33;;;;;;;4.20;3.90;;;2.50;86.60;;;;;;967437;145;27387;-78
2023/12/02 09:06:00;;;;;;;4.27;3.87;;;2.60;87.00;;;;;;966383;145;27399;-78
2023/12/02 09:08:26;;;;;;;5.57;4.20;;;2.60;87.10;;;;;;967024;145;27280;-78
2023/12/02 09:10:53;;;;;;;6.33;5.23;;;2.60;86.90;;;;;;967401;146;27429;-78
2023/12/02 09:13:38;;;;;;;6.53;4.77;;;2.60;87.20;;;;;;965863;146;27431;-78
2023/12/02 09:16:04;;;;;;;5.83;5.23;;;2.60;87.10;;;;;;964576;144;27379;-78
2023/12/02 09:18:34;;;;;;;5.73;5.10;;;2.70;87.10;;;;;;966698;145;27270;-78
2023/12/02 09:21:00;;;;;;;5.40;4.90;;;2.70;87.20;;;;;;966293;145;27325;-78
2023/12/02 09:23:27;;;;;;;4.77;4.30;;;2.70;87.10;;;;;;965981;146;27321;-78
2023/12/02 09:25:54;;;;;;;5.03;4.57;;;2.60;86.90;;;;;;965822;146;27373;-78
2023/12/02 09:28:26;;;;;;;4.20;3.80;;;2.60;86.90;;;;;;963862;145;27321;-78
2023/12/02 09:30:58;;;;;;;4.87;4.33;;;2.60;86.90;;;;;;967024;146;27352;-78
2023/12/02 09:33:25;;;;;;;4.87;4.47;;;2.60;86.70;;;;;;965387;145;27337;-78
2023/12/02 09:35:51;;;;;;;5.97;4.90;;;2.60;86.80;;;;;;967456;145;27359;-78
2023/12/02 09:38:18;;;;;;;4.80;4.40;;;2.60;86.60;;;;;;964563;146;27302;-78
2023/12/02 09:40:45;;;;;;;4.30;3.80;;;2.60;86.70;;;;;;967619;145;27293;-78
2023/12/02 09:43:23;;;;;;;4.37;3.67;;;2.60;86.70;;;;;;965751;145;27305;-78
2023/12/02 09:46:14;;;;;;;6.07;3.67;;;2.60;86.40;;;;;;968007;143;27245;-78
2023/12/02 09:48:52;;;;;;;4.40;3.97;;;2.60;86.40;;;;;;963704;145;27268;-78
2023/12/02 09:51:25;;;;;;;4.10;3.73;;;2.60;86.40;;;;;;964880;145;27874;-81
2023/12/02 09:54:01;;;;;;;4.27;3.87;;;2.60;86.30;;;;;;957466;146;27336;-78
2023/12/02 09:56:27;;;;;;;4.10;3.33;;;2.60;86.40;;;;;;968310;146;27410;-78
2023/12/02 09:59:00;;;;;;;4.47;3.53;;;2.60;86.30;;;;;;965303;146;27266;-78
2023/12/02 10:01:42;;;;;;;4.23;3.87;;;2.60;86.30;;;;;;966192;145;27290;-78
2023/12/02 10:04:07;;;;;;;4.07;3.67;;;2.60;86.10;;;;;;969048;146;27312;-77
2023/12/02 10:06:49;;;;;;;3.87;3.53;;;2.60;86.20;;;;;;967444;146;27316;-77
2023/12/02 10:09:28;;;;;;;5.13;3.30;;;2.60;86.10;;;;;;968028;146;27661;-77
2023/12/02 10:12:24;;;;;;;3.53;3.23;;;2.60;86.10;;;;;;969504;146;27274;-77
2023/12/02 10:14:49;;;;;;;4.00;3.60;;;2.60;85.80;;;;;;965649;146;27364;-76
2023/12/02 10:17:15;;;;;;;4.03;3.63;;;2.60;85.70;;;;;;968670;146;27320;-77
2023/12/02 10:19:45;;;;;;;3.80;3.50;;;2.60;85.70;;;;;;970274;146;27318;-83
2023/12/02 10:22:12;;;;;;;3.20;2.93;;;2.60;85.60;;;;;;968167;146;27316;-84
2023/12/02 10:24:50;;;;;;;4.00;3.60;;;2.60;85.50;;;;;;968318;146;27314;-83
2023/12/02 10:27:17;;;;;;;4.27;3.87;;;2.60;85.60;;;;;;965948;146;27363;-83
2023/12/02 10:29:49;;;;;;;4.00;3.70;;;2.60;86.30;;;;;;970444;146;27429;-86
2023/12/02 10:32:18;;;;;;;4.43;3.97;;;2.60;85.40;;;;;;970047;146;27352;-85
2023/12/02 10:34:47;;;;;;;4.63;3.70;;;2.60;85.30;;;;;;966266;146;27407;-84
2023/12/02 10:37:14;;;;;;;3.83;3.43;;;2.70;85.30;;;;;;968400;146;27333;-86
2023/12/02 10:39:43;;;;;;;3.83;3.53;;;2.70;85.20;;;;;;967324;146;27352;-85
2023/12/02 10:42:08;;;;;;;4.43;4.03;;;2.70;85.20;;;;;;967803;146;27348;-84
2023/12/02 10:44:34;;;;;;;4.30;3.90;;;2.70;85.00;;;;;;967973;144;27701;-79
2023/12/02 10:47:00;;;;;;;3.90;3.50;;;2.70;85.00;;;;;;970744;146;27385;-78
2023/12/02 10:49:30;;;;;;;4.07;3.67;;;2.70;84.80;;;;;;968507;145;27221;-80
2023/12/02 10:51:56;;;;;;;3.87;3.57;;;2.70;84.70;;;;;;967787;146;27301;-84
2023/12/02 10:54:26;;;;;;;3.87;3.53;;;2.70;84.70;;;;;;967930;146;27257;-81
2023/12/02 10:56:52;;;;;;;4.40;4.00;;;2.70;84.80;;;;;;966335;146;27770;-84
2023/12/02 10:59:19;;;;;;;4.93;3.87;;;2.70;84.60;;;;;;965967;143;27238;-85
2023/12/02 11:01:45;;;;;;;4.50;4.10;;;2.70;84.60;;;;;;967610;146;27329;-83
2023/12/02 11:04:15;;;;;;;4.63;3.83;;;2.70;84.70;;;;;;968383;146;27241;-82
2023/12/02 11:06:41;;;;;;;4.07;3.67;;;2.70;84.80;;;;;;968545;146;27324;-82
2023/12/02 11:09:10;;;;;;;3.70;3.40;;;2.70;84.60;;;;;;968075;146;27773;-80
2023/12/02 11:11:37;;;;;;;4.33;3.93;;;2.70;84.60;;;;;;969034;146;27295;-83
2023/12/02 11:14:04;;;;;;;4.53;4.13;;;2.70;84.70;;;;;;968760;146;27872;-77
2023/12/02 11:16:34;;;;;;;3.97;3.53;;;2.70;84.60;;;;;;935704;149;27377;-85
2023/12/02 11:19:02;;;;;;;3.60;3.27;;;2.70;84.50;;;;;;966807;146;27754;-84
2023/12/02 11:21:35;;;;;;;3.80;3.40;;;2.80;84.50;;;;;;967302;146;27310;-84
2023/12/02 11:24:07;;;;;;;3.70;3.30;;;2.80;84.60;;;;;;952755;146;27483;-83
2023/12/02 11:26:37;;;;;;;3.63;3.33;;;2.80;84.60;;;;;;969647;146;27257;-84
2023/12/02 11:29:15;;;;;;;3.63;3.33;;;2.80;84.60;;;;;;966492;144;27274;-74
2023/12/02 11:32:06;;;;;;;3.40;3.10;;;2.80;84.20;;;;;;965796;146;27315;-77
2023/12/02 11:35:03;;;;;;;3.77;3.37;;;2.80;84.10;;;;;;965414;146;27464;-78
2023/12/02 11:37:42;;;;;;;4.47;3.33;;;2.70;83.90;;;;;;945208;146;28270;-74
2023/12/02 11:40:21;;;;;;;4.27;3.50;;;2.70;83.90;;;;;;965870;146;27231;-74
2023/12/02 11:42:56;;;;;;;3.93;3.53;;;2.70;83.90;;;;;;966113;146;27377;-74
2023/12/02 11:45:26;;;;;;;3.67;3.30;;;2.70;83.90;;;;;;967313;146;27379;-74
2023/12/02 11:48:00;;;;;;;3.13;2.83;;;2.70;83.80;;;;;;965794;144;27341;-74
2023/12/02 11:50:45;;;;;;;3.83;3.13;;;2.70;83.90;;;;;;968782;146;27661;-74
2023/12/02 11:53:36;;;;;;;4.60;3.30;;;2.70;83.90;;;;;;969671;146;27364;-73
2023/12/02 11:56:06;;;;;;;4.50;3.40;;;2.70;83.60;;;;;;970801;145;27294;-75
2023/12/02 11:58:35;;;;;;;3.27;2.97;;;2.70;83.60;;;;;;970571;146;27413;-74
2023/12/02 12:01:05;;;;;;;5.53;3.33;;;2.60;83.70;;;;;;968532;144;27378;-77
2023/12/02 12:03:49;;;;;;;5.27;4.10;;;2.70;83.50;;;;;;963310;146;27363;-74
2023/12/02 12:06:34;;;;;;;3.83;3.50;;;2.60;83.20;;;;;;966855;146;27273;-75
2023/12/02 12:09:28;;;;;;;3.97;3.57;;;2.60;83.30;;;;;;967803;146;27338;-76
2023/12/02 12:11:55;;;;;;;4.50;4.00;;;2.60;83.20;;;;;;966859;146;27328;-75
2023/12/02 12:14:21;;;;;;;3.93;3.50;;;2.60;83.10;;;;;;967779;146;27318;-75
2023/12/02 12:16:48;;;;;;;3.60;3.30;;;2.60;82.80;;;;;;967586;146;27310;-73
2023/12/02 12:19:14;;;;;;;4.20;3.80;;;2.60;82.90;;;;;;970835;146;27219;-73
2023/12/02 12:21:42;;;;;;;4.20;3.37;;;2.60;82.80;;;;;;967579;146;27356;-78
2023/12/02 12:24:08;;;;;;;4.07;3.67;;;2.60;82.80;;;;;;967012;146;27344;-74
2023/12/02 12:26:34;;;;;;;4.30;3.90;;;2.60;82.90;;;;;;968322;146;27332;-77
2023/12/02 12:29:01;;;;;;;4.90;4.40;;;2.60;82.90;;;;;;966937;146;27359;-75
2023/12/02 12:31:30;;;;;;;4.20;3.80;;;2.60;82.80;;;;;;968741;145;27308;-78
2023/12/02 12:33:58;;;;;;;4.37;3.97;;;2.60;82.90;;;;;;969709;146;27486;-75
2023/12/02 12:36:27;;;;;;;4.70;4.20;;;2.60;83.20;;;;;;969759;146;27384;-74
2023/12/02 12:38:53;;;;;;;4.93;4.00;;;2.60;83.00;;;;;;967828;146;27234;-77
2023/12/02 12:41:20;;;;;;;3.80;3.50;;;2.60;82.90;;;;;;968818;144;27276;-77
2023/12/02 12:43:46;;;;;;;4.97;4.33;;;2.60;83.00;;;;;;967916;146;27340;-77
2023/12/02 12:46:13;;;;;;;4.40;3.83;;;2.60;83.20;;;;;;966846;146;27609;-77
2023/12/02 12:48:39;;;;;;;4.10;3.70;;;2.70;83.20;;;;;;967865;146;27373;-77
2023/12/02 12:51:06;;;;;;;4.97;4.47;;;2.70;83.10;;;;;;968076;146;27269;-77
2023/12/02 12:53:32;;;;;;;4.30;3.90;;;2.70;83.30;;;;;;968942;146;27328;-77
2023/12/02 12:56:02;;;;;;;5.17;4.67;;;2.70;83.20;;;;;;968770;143;27428;-77
2023/12/02 12:58:28;;;;;;;4.30;3.90;;;2.70;83.20;;;;;;952633;146;27435;-77
2023/12/02 13:00:55;;;;;;;5.00;4.50;;;2.70;83.30;;;;;;949835;148;27332;-77